Terminal Aerodrome Forecast
Issued by NWS Flagstaff, AZ

Home | Current Version | Previous Version | Text Only | Print | Product List | Glossary On
Versions: 1 2 3 4 5 6 7 8 9 10 11 12 13 14 15 16 17
040
FTUS45 KFGZ 070043 AAA
TAFFLG
TAF AMD
KFLG 070043Z 0701/0724 20012G20KT P6SM BKN050
     FM070300 22010KT 5SM -SHRA BR BKN035
     FM071200 22005KT P6SM -SHSNRA BKN030=

USA.gov is the U.S. government's official web portal to all federal, state and local government web resources and services.